Jump to content


TAMPA CARGO FLIGHT QT430 FLOWN ON 09-28-2017 BY CAPTAIN ADEL CABALLIN

Pilot StatsCaptain Adel Caballin (LDP11) • 707.2 total hours • 382 total flights [View Logbook]
FLIGHT DETAILS
StatusReceived and approved on 2017-09-28 at 15:09:54
Origin AirportMiami Intl (KMIA) • Miami, Florida, United States (8 feet MSL)
Filed Flight PlanKMIA MTH B646 CANOA UB646 VINKA UB764 BZE UR630 JERON MGGT
Destination AirportLa Aurora Intl (MGGT) • Guatemala City, Guatemala (4,951 feet MSL)
Alternate AirportEl Salvador Intl (MSLP) • San Salvador, El Salvador (101 feet MSL)
AirlineTampa Cargo
AircraftAirbus A330-200 Freighter (33F / A330-200F)
FS Aircraft UsedAirbus A330-200F Avianca Cargo (Tampa Cargo) N330QT
Cruising AltitudeFL380
Distance Flown885 nautical miles
Cargo Onboard79,300 lbs (98.88% full)
DEPARTURE DETAILS
Time Out06:05:17
Taxi Data389,484 lbs total with 49,484 lbs of fuel onboard
Takeoff Data06:18:18 (13 minutes after leaving gate/ramp) • 387,265 lbs total • 5° pitch at 172 knots
Departure METARKMIA 281353Z 24003KT 10SM FEW022 FEW090 SCT140 29/24 A2992 RMK AO2 SLP132 T02940239
ARRIVAL DETAILS
Landing Data06:28:06 • 352,751 lbs total • 5° pitch doing 123 knots at a rate of -236.07 feet/minute with 10,678 lbs of fuel onboard
Time In06:39:22 (11 minutes after landing)
Ramp Weight350,678 lbs total
Total Fuel Used38,806 lbs
Total Block Time02:34:03 (2.6 hours) while 24 minutes were spent on the ground
Arrival METARMGGT 281900Z 18014KT 9999 FEW020 BKN200 24/18 Q1020 A3012 FEW090
MISCELLANEOUS DETAILS
LiveDISPATCH Version4.8.3.1
FS Version
FSUIPC Version4.97
OS VersionWindows 7 32-bit
Screen Resolution1920 x 1080
Pilot's CommentsROUTE: MNATE2 MNATE MTH B646 FIS G765 MAXIM UG765 AUR
FLIGHT MAP